sensor_id;sensor_type;location;lat;lon;timestamp;P1;durP1;ratioP1;P2;durP2;ratioP2
17631;SDS011;8934;51.194;17.150;2022-09-23T00:02:05;13.90;;;10.07;;
17631;SDS011;8934;51.194;17.150;2022-09-23T00:04:55;12.80;;;9.27;;
17631;SDS011;8934;51.194;17.150;2022-09-23T00:07:43;15.70;;;9.60;;
17631;SDS011;8934;51.194;17.150;2022-09-23T00:10:31;11.87;;;8.77;;
17631;SDS011;8934;51.194;17.150;2022-09-23T00:13:22;14.10;;;10.33;;
17631;SDS011;8934;51.194;17.150;2022-09-23T00:16:11;14.03;;;9.57;;
17631;SDS011;8934;51.194;17.150;2022-09-23T00:19:01;14.07;;;9.90;;
17631;SDS011;8934;51.194;17.150;2022-09-23T00:21:50;12.43;;;8.70;;
17631;SDS011;8934;51.194;17.150;2022-09-23T00:24:38;14.07;;;9.97;;
17631;SDS011;8934;51.194;17.150;2022-09-23T00:27:27;11.37;;;9.43;;
17631;SDS011;8934;51.194;17.150;2022-09-23T00:30:15;11.97;;;8.67;;
17631;SDS011;8934;51.194;17.150;2022-09-23T00:33:03;13.17;;;8.53;;
17631;SDS011;8934;51.194;17.150;2022-09-23T00:35:56;10.20;;;8.67;;
17631;SDS011;8934;51.194;17.150;2022-09-23T00:38:46;10.57;;;8.93;;
17631;SDS011;8934;51.194;17.150;2022-09-23T00:41:35;10.67;;;8.40;;
17631;SDS011;8934;51.194;17.150;2022-09-23T00:44:43;9.17;;;8.20;;
17631;SDS011;8934;51.194;17.150;2022-09-23T00:47:34;10.57;;;8.07;;
17631;SDS011;8934;51.194;17.150;2022-09-23T00:50:29;11.43;;;8.17;;
17631;SDS011;8934;51.194;17.150;2022-09-23T00:53:21;9.10;;;8.03;;
17631;SDS011;8934;51.194;17.150;2022-09-23T00:56:13;11.03;;;8.47;;
17631;SDS011;8934;51.194;17.150;2022-09-23T00:59:01;11.10;;;8.53;;
17631;SDS011;8934;51.194;17.150;2022-09-23T01:01:50;9.83;;;7.93;;
17631;SDS011;8934;51.194;17.150;2022-09-23T01:04:40;11.27;;;8.47;;
17631;SDS011;8934;51.194;17.150;2022-09-23T01:07:28;10.50;;;8.70;;
17631;SDS011;8934;51.194;17.150;2022-09-23T01:10:16;12.13;;;8.73;;
17631;SDS011;8934;51.194;17.150;2022-09-23T01:13:07;14.83;;;9.30;;
17631;SDS011;8934;51.194;17.150;2022-09-23T01:16:03;8.53;;;7.40;;
17631;SDS011;8934;51.194;17.150;2022-09-23T01:18:56;9.23;;;8.10;;
17631;SDS011;8934;51.194;17.150;2022-09-23T01:21:56;12.27;;;8.27;;
17631;SDS011;8934;51.194;17.150;2022-09-23T01:24:55;9.53;;;7.77;;
17631;SDS011;8934;51.194;17.150;2022-09-23T01:28:16;10.30;;;8.00;;
17631;SDS011;8934;51.194;17.150;2022-09-23T01:31:20;8.20;;;7.40;;
17631;SDS011;8934;51.194;17.150;2022-09-23T01:34:15;8.77;;;7.00;;
17631;SDS011;8934;51.194;17.150;2022-09-23T01:37:12;10.60;;;8.10;;
17631;SDS011;8934;51.194;17.150;2022-09-23T01:40:09;10.83;;;8.60;;
17631;SDS011;8934;51.194;17.150;2022-09-23T01:43:05;9.83;;;8.30;;
17631;SDS011;8934;51.194;17.150;2022-09-23T01:45:57;9.00;;;8.03;;
17631;SDS011;8934;51.194;17.150;2022-09-23T01:48:54;10.23;;;8.40;;
17631;SDS011;8934;51.194;17.150;2022-09-23T01:51:48;10.43;;;9.33;;
17631;SDS011;8934;51.194;17.150;2022-09-23T01:54:41;9.73;;;8.57;;
17631;SDS011;8934;51.194;17.150;2022-09-23T01:57:36;10.13;;;9.13;;
17631;SDS011;8934;51.194;17.150;2022-09-23T02:00:26;11.07;;;9.20;;
17631;SDS011;8934;51.194;17.150;2022-09-23T02:03:18;9.47;;;8.33;;
17631;SDS011;8934;51.194;17.150;2022-09-23T02:06:14;9.43;;;8.43;;
17631;SDS011;8934;51.194;17.150;2022-09-23T02:09:07;9.97;;;8.67;;
17631;SDS011;8934;51.194;17.150;2022-09-23T02:11:58;11.77;;;9.43;;
17631;SDS011;8934;51.194;17.150;2022-09-23T02:14:51;10.63;;;9.53;;
17631;SDS011;8934;51.194;17.150;2022-09-23T02:17:45;10.63;;;9.53;;
17631;SDS011;8934;51.194;17.150;2022-09-23T02:20:36;10.17;;;9.10;;
17631;SDS011;8934;51.194;17.150;2022-09-23T02:23:28;10.50;;;9.40;;
17631;SDS011;8934;51.194;17.150;2022-09-23T02:26:21;11.70;;;9.77;;
17631;SDS011;8934;51.194;17.150;2022-09-23T02:29:17;13.07;;;9.27;;
17631;SDS011;8934;51.194;17.150;2022-09-23T02:32:10;10.77;;;9.00;;
17631;SDS011;8934;51.194;17.150;2022-09-23T02:35:05;11.20;;;10.10;;
17631;SDS011;8934;51.194;17.150;2022-09-23T02:38:02;11.47;;;10.37;;
17631;SDS011;8934;51.194;17.150;2022-09-23T02:41:03;12.73;;;9.80;;
17631;SDS011;8934;51.194;17.150;2022-09-23T02:43:55;12.03;;;9.63;;
17631;SDS011;8934;51.194;17.150;2022-09-23T02:46:49;12.20;;;10.77;;
17631;SDS011;8934;51.194;17.150;2022-09-23T02:49:38;11.63;;;10.43;;
17631;SDS011;8934;51.194;17.150;2022-09-23T02:52:26;12.63;;;11.33;;
17631;SDS011;8934;51.194;17.150;2022-09-23T02:55:14;12.30;;;11.10;;
17631;SDS011;8934;51.194;17.150;2022-09-23T02:58:06;14.10;;;11.97;;
17631;SDS011;8934;51.194;17.150;2022-09-23T03:00:57;15.67;;;13.93;;
17631;SDS011;8934;51.194;17.150;2022-09-23T03:03:53;12.83;;;11.50;;
17631;SDS011;8934;51.194;17.150;2022-09-23T03:06:51;14.97;;;12.97;;
17631;SDS011;8934;51.194;17.150;2022-09-23T03:09:52;16.93;;;14.80;;
17631;SDS011;8934;51.194;17.150;2022-09-23T03:12:48;16.93;;;14.53;;
17631;SDS011;8934;51.194;17.150;2022-09-23T03:15:47;14.87;;;12.87;;
17631;SDS011;8934;51.194;17.150;2022-09-23T03:18:43;13.93;;;12.57;;
17631;SDS011;8934;51.194;17.150;2022-09-23T03:21:36;14.03;;;12.47;;
17631;SDS011;8934;51.194;17.150;2022-09-23T03:24:30;13.83;;;12.43;;
17631;SDS011;8934;51.194;17.150;2022-09-23T03:27:20;13.23;;;11.93;;
17631;SDS011;8934;51.194;17.150;2022-09-23T03:30:10;14.03;;;11.93;;
17631;SDS011;8934;51.194;17.150;2022-09-23T03:33:00;12.73;;;11.53;;
17631;SDS011;8934;51.194;17.150;2022-09-23T03:35:53;12.63;;;11.33;;
17631;SDS011;8934;51.194;17.150;2022-09-23T03:39:03;12.87;;;11.63;;
17631;SDS011;8934;51.194;17.150;2022-09-23T03:41:54;12.90;;;11.60;;
17631;SDS011;8934;51.194;17.150;2022-09-23T03:44:46;13.37;;;10.90;;
17631;SDS011;8934;51.194;17.150;2022-09-23T03:47:36;11.63;;;10.50;;
17631;SDS011;8934;51.194;17.150;2022-09-23T03:50:26;12.03;;;10.03;;
17631;SDS011;8934;51.194;17.150;2022-09-23T03:53:14;13.07;;;11.53;;
17631;SDS011;8934;51.194;17.150;2022-09-23T03:56:03;12.73;;;10.90;;
17631;SDS011;8934;51.194;17.150;2022-09-23T03:58:51;11.67;;;10.50;;
17631;SDS011;8934;51.194;17.150;2022-09-23T04:01:39;12.80;;;10.57;;
17631;SDS011;8934;51.194;17.150;2022-09-23T04:04:26;11.97;;;10.77;;
17631;SDS011;8934;51.194;17.150;2022-09-23T04:07:19;14.90;;;11.77;;
17631;SDS011;8934;51.194;17.150;2022-09-23T04:10:08;12.73;;;11.37;;
17631;SDS011;8934;51.194;17.150;2022-09-23T04:12:56;14.47;;;11.87;;
17631;SDS011;8934;51.194;17.150;2022-09-23T04:15:44;12.10;;;10.90;;
17631;SDS011;8934;51.194;17.150;2022-09-23T04:18:32;12.87;;;11.47;;
17631;SDS011;8934;51.194;17.150;2022-09-23T04:21:20;14.27;;;12.10;;
17631;SDS011;8934;51.194;17.150;2022-09-23T04:24:09;13.63;;;11.67;;
17631;SDS011;8934;51.194;17.150;2022-09-23T04:26:58;13.33;;;11.83;;
17631;SDS011;8934;51.194;17.150;2022-09-23T04:29:46;11.93;;;10.73;;
17631;SDS011;8934;51.194;17.150;2022-09-23T04:32:34;14.30;;;12.07;;
17631;SDS011;8934;51.194;17.150;2022-09-23T04:35:22;13.67;;;12.17;;
17631;SDS011;8934;51.194;17.150;2022-09-23T04:38:10;13.47;;;12.07;;
17631;SDS011;8934;51.194;17.150;2022-09-23T04:41:00;13.03;;;11.43;;
17631;SDS011;8934;51.194;17.150;2022-09-23T04:43:48;13.97;;;11.67;;
17631;SDS011;8934;51.194;17.150;2022-09-23T04:46:35;12.83;;;10.47;;
17631;SDS011;8934;51.194;17.150;2022-09-23T04:49:24;11.63;;;10.43;;
17631;SDS011;8934;51.194;17.150;2022-09-23T04:52:11;13.13;;;11.73;;
17631;SDS011;8934;51.194;17.150;2022-09-23T04:54:59;12.50;;;11.30;;
17631;SDS011;8934;51.194;17.150;2022-09-23T04:57:48;11.60;;;10.40;;
17631;SDS011;8934;51.194;17.150;2022-09-23T05:00:36;11.77;;;10.23;;
17631;SDS011;8934;51.194;17.150;2022-09-23T05:03:24;14.53;;;10.90;;
17631;SDS011;8934;51.194;17.150;2022-09-23T05:06:12;11.60;;;10.47;;
17631;SDS011;8934;51.194;17.150;2022-09-23T05:09:02;11.30;;;10.23;;
17631;SDS011;8934;51.194;17.150;2022-09-23T05:11:51;14.17;;;11.30;;
17631;SDS011;8934;51.194;17.150;2022-09-23T05:14:41;11.93;;;10.63;;
17631;SDS011;8934;51.194;17.150;2022-09-23T05:17:29;12.30;;;11.10;;
17631;SDS011;8934;51.194;17.150;2022-09-23T05:20:17;14.47;;;12.07;;
17631;SDS011;8934;51.194;17.150;2022-09-23T05:23:05;12.60;;;10.70;;
17631;SDS011;8934;51.194;17.150;2022-09-23T05:25:57;12.87;;;11.47;;
17631;SDS011;8934;51.194;17.150;2022-09-23T05:28:46;12.27;;;10.80;;
17631;SDS011;8934;51.194;17.150;2022-09-23T05:31:35;11.97;;;10.57;;
17631;SDS011;8934;51.194;17.150;2022-09-23T05:34:23;13.57;;;11.40;;
17631;SDS011;8934;51.194;17.150;2022-09-23T05:37:11;12.70;;;11.50;;
17631;SDS011;8934;51.194;17.150;2022-09-23T05:39:59;13.13;;;11.83;;
17631;SDS011;8934;51.194;17.150;2022-09-23T05:42:47;14.23;;;11.60;;
17631;SDS011;8934;51.194;17.150;2022-09-23T05:45:36;15.00;;;13.50;;
17631;SDS011;8934;51.194;17.150;2022-09-23T05:48:25;18.10;;;13.90;;
17631;SDS011;8934;51.194;17.150;2022-09-23T05:51:14;17.17;;;14.23;;
17631;SDS011;8934;51.194;17.150;2022-09-23T05:54:03;17.37;;;14.90;;
17631;SDS011;8934;51.194;17.150;2022-09-23T05:56:52;17.27;;;14.73;;
17631;SDS011;8934;51.194;17.150;2022-09-23T05:59:39;18.17;;;15.33;;
17631;SDS011;8934;51.194;17.150;2022-09-23T06:02:32;21.30;;;17.30;;
17631;SDS011;8934;51.194;17.150;2022-09-23T06:05:21;21.77;;;17.17;;
17631;SDS011;8934;51.194;17.150;2022-09-23T06:08:10;24.87;;;18.60;;
17631;SDS011;8934;51.194;17.150;2022-09-23T06:10:57;21.70;;;18.50;;
17631;SDS011;8934;51.194;17.150;2022-09-23T06:13:53;22.87;;;18.53;;
17631;SDS011;8934;51.194;17.150;2022-09-23T06:16:45;23.47;;;18.80;;
17631;SDS011;8934;51.194;17.150;2022-09-23T06:19:33;27.63;;;20.70;;
17631;SDS011;8934;51.194;17.150;2022-09-23T06:22:24;31.00;;;23.20;;
17631;SDS011;8934;51.194;17.150;2022-09-23T06:25:12;30.03;;;22.10;;
17631;SDS011;8934;51.194;17.150;2022-09-23T06:28:00;32.63;;;23.93;;
17631;SDS011;8934;51.194;17.150;2022-09-23T06:30:48;34.00;;;26.57;;
17631;SDS011;8934;51.194;17.150;2022-09-23T06:33:36;36.93;;;25.37;;
17631;SDS011;8934;51.194;17.150;2022-09-23T06:36:24;34.13;;;24.20;;
17631;SDS011;8934;51.194;17.150;2022-09-23T06:39:28;30.90;;;25.00;;
17631;SDS011;8934;51.194;17.150;2022-09-23T06:42:16;34.00;;;25.67;;
17631;SDS011;8934;51.194;17.150;2022-09-23T06:45:03;30.20;;;22.77;;
17631;SDS011;8934;51.194;17.150;2022-09-23T06:47:52;27.67;;;23.07;;
17631;SDS011;8934;51.194;17.150;2022-09-23T06:50:42;29.13;;;24.47;;
17631;SDS011;8934;51.194;17.150;2022-09-23T06:53:30;33.30;;;26.43;;
17631;SDS011;8934;51.194;17.150;2022-09-23T06:56:20;37.20;;;26.40;;
17631;SDS011;8934;51.194;17.150;2022-09-23T06:59:08;31.37;;;24.33;;
17631;SDS011;8934;51.194;17.150;2022-09-23T07:01:57;28.13;;;24.57;;
17631;SDS011;8934;51.194;17.150;2022-09-23T07:04:45;28.73;;;24.37;;
17631;SDS011;8934;51.194;17.150;2022-09-23T07:07:33;30.17;;;22.97;;
17631;SDS011;8934;51.194;17.150;2022-09-23T07:10:22;26.27;;;21.48;;
17631;SDS011;8934;51.194;17.150;2022-09-23T07:13:11;23.83;;;19.80;;
17631;SDS011;8934;51.194;17.150;2022-09-23T07:16:01;24.30;;;19.60;;
17631;SDS011;8934;51.194;17.150;2022-09-23T07:18:49;19.87;;;17.87;;
17631;SDS011;8934;51.194;17.150;2022-09-23T07:21:38;19.90;;;17.80;;
17631;SDS011;8934;51.194;17.150;2022-09-23T07:24:26;21.48;;;18.13;;
17631;SDS011;8934;51.194;17.150;2022-09-23T07:27:14;22.02;;;18.10;;
17631;SDS011;8934;51.194;17.150;2022-09-23T07:30:05;19.92;;;16.58;;
17631;SDS011;8934;51.194;17.150;2022-09-23T07:33:05;20.98;;;17.13;;
17631;SDS011;8934;51.194;17.150;2022-09-23T07:36:15;17.38;;;15.73;;
17631;SDS011;8934;51.194;17.150;2022-09-23T07:39:04;15.52;;;13.93;;
17631;SDS011;8934;51.194;17.150;2022-09-23T07:41:53;17.02;;;14.98;;
17631;SDS011;8934;51.194;17.150;2022-09-23T07:44:41;15.70;;;14.23;;
17631;SDS011;8934;51.194;17.150;2022-09-23T07:47:32;16.70;;;14.88;;
17631;SDS011;8934;51.194;17.150;2022-09-23T07:50:19;15.30;;;13.70;;
17631;SDS011;8934;51.194;17.150;2022-09-23T07:53:07;16.02;;;14.43;;
17631;SDS011;8934;51.194;17.150;2022-09-23T07:55:55;14.60;;;12.88;;
17631;SDS011;8934;51.194;17.150;2022-09-23T07:58:44;15.85;;;14.15;;
17631;SDS011;8934;51.194;17.150;2022-09-23T08:01:46;14.85;;;13.45;;
17631;SDS011;8934;51.194;17.150;2022-09-23T08:04:37;11.80;;;10.60;;
17631;SDS011;8934;51.194;17.150;2022-09-23T08:07:25;10.30;;;9.27;;
17631;SDS011;8934;51.194;17.150;2022-09-23T08:10:13;11.15;;;9.95;;
17631;SDS011;8934;51.194;17.150;2022-09-23T08:13:05;10.32;;;9.43;;
17631;SDS011;8934;51.194;17.150;2022-09-23T08:15:53;11.95;;;10.73;;
17631;SDS011;8934;51.194;17.150;2022-09-23T08:18:42;10.00;;;8.95;;
17631;SDS011;8934;51.194;17.150;2022-09-23T08:21:32;12.18;;;10.98;;
17631;SDS011;8934;51.194;17.150;2022-09-23T08:24:20;11.48;;;10.25;;
17631;SDS011;8934;51.194;17.150;2022-09-23T08:27:09;11.40;;;10.20;;
17631;SDS011;8934;51.194;17.150;2022-09-23T08:29:57;11.45;;;10.35;;
17631;SDS011;8934;51.194;17.150;2022-09-23T08:32:48;11.40;;;10.32;;
17631;SDS011;8934;51.194;17.150;2022-09-23T08:35:36;10.07;;;9.18;;
17631;SDS011;8934;51.194;17.150;2022-09-23T08:38:25;11.95;;;10.73;;
17631;SDS011;8934;51.194;17.150;2022-09-23T08:41:15;13.38;;;11.23;;
17631;SDS011;8934;51.194;17.150;2022-09-23T08:44:09;12.60;;;11.45;;
17631;SDS011;8934;51.194;17.150;2022-09-23T08:47:04;13.93;;;12.65;;
17631;SDS011;8934;51.194;17.150;2022-09-23T08:49:57;11.05;;;10.05;;
17631;SDS011;8934;51.194;17.150;2022-09-23T08:52:49;10.50;;;9.45;;
17631;SDS011;8934;51.194;17.150;2022-09-23T08:55:42;10.15;;;9.32;;
17631;SDS011;8934;51.194;17.150;2022-09-23T08:58:35;10.20;;;9.00;;
17631;SDS011;8934;51.194;17.150;2022-09-23T09:01:32;8.75;;;7.90;;
17631;SDS011;8934;51.194;17.150;2022-09-23T09:04:26;8.35;;;7.60;;
17631;SDS011;8934;51.194;17.150;2022-09-23T09:07:24;7.88;;;7.18;;
17631;SDS011;8934;51.194;17.150;2022-09-23T09:10:22;6.95;;;6.28;;
17631;SDS011;8934;51.194;17.150;2022-09-23T09:13:19;6.43;;;5.82;;
17631;SDS011;8934;51.194;17.150;2022-09-23T09:16:18;6.32;;;5.82;;
17631;SDS011;8934;51.194;17.150;2022-09-23T09:22:54;6.90;;;6.32;;
17631;SDS011;8934;51.194;17.150;2022-09-23T09:25:45;7.20;;;6.60;;
17631;SDS011;8934;51.194;17.150;2022-09-23T09:28:37;7.00;;;6.35;;
17631;SDS011;8934;51.194;17.150;2022-09-23T09:31:29;6.43;;;5.50;;
17631;SDS011;8934;51.194;17.150;2022-09-23T09:34:22;6.25;;;5.60;;
17631;SDS011;8934;51.194;17.150;2022-09-23T09:37:17;7.82;;;7.10;;
17631;SDS011;8934;51.194;17.150;2022-09-23T09:40:10;6.78;;;6.22;;
17631;SDS011;8934;51.194;17.150;2022-09-23T09:43:00;6.20;;;5.63;;
17631;SDS011;8934;51.194;17.150;2022-09-23T09:45:55;6.75;;;5.45;;
17631;SDS011;8934;51.194;17.150;2022-09-23T09:48:53;5.15;;;4.70;;
17631;SDS011;8934;51.194;17.150;2022-09-23T09:51:45;4.32;;;4.03;;
17631;SDS011;8934;51.194;17.150;2022-09-23T09:54:33;7.72;;;4.13;;
17631;SDS011;8934;51.194;17.150;2022-09-23T09:57:23;4.70;;;3.78;;
17631;SDS011;8934;51.194;17.150;2022-09-23T10:00:34;4.20;;;3.80;;
17631;SDS011;8934;51.194;17.150;2022-09-23T10:03:37;3.78;;;3.35;;
17631;SDS011;8934;51.194;17.150;2022-09-23T10:06:28;3.40;;;3.20;;
17631;SDS011;8934;51.194;17.150;2022-09-23T10:09:17;4.18;;;3.88;;
17631;SDS011;8934;51.194;17.150;2022-09-23T10:12:10;3.70;;;3.40;;
17631;SDS011;8934;51.194;17.150;2022-09-23T10:15:00;3.92;;;3.58;;
17631;SDS011;8934;51.194;17.150;2022-09-23T10:17:48;4.88;;;4.40;;
17631;SDS011;8934;51.194;17.150;2022-09-23T10:20:39;3.72;;;3.10;;
17631;SDS011;8934;51.194;17.150;2022-09-23T10:23:27;3.00;;;2.70;;
17631;SDS011;8934;51.194;17.150;2022-09-23T10:26:24;3.78;;;3.42;;
17631;SDS011;8934;51.194;17.150;2022-09-23T10:29:19;3.90;;;2.63;;
17631;SDS011;8934;51.194;17.150;2022-09-23T10:32:24;2.75;;;2.55;;
17631;SDS011;8934;51.194;17.150;2022-09-23T10:35:14;2.88;;;2.20;;
17631;SDS011;8934;51.194;17.150;2022-09-23T10:38:06;2.00;;;1.90;;
17631;SDS011;8934;51.194;17.150;2022-09-23T10:40:56;2.42;;;2.22;;
17631;SDS011;8934;51.194;17.150;2022-09-23T10:44:05;2.30;;;1.80;;
17631;SDS011;8934;51.194;17.150;2022-09-23T10:47:27;3.33;;;2.28;;
17631;SDS011;8934;51.194;17.150;2022-09-23T10:50:23;4.72;;;2.10;;
17631;SDS011;8934;51.194;17.150;2022-09-23T10:53:25;2.72;;;2.15;;
17631;SDS011;8934;51.194;17.150;2022-09-23T10:56:25;3.88;;;1.92;;
17631;SDS011;8934;51.194;17.150;2022-09-23T11:05:57;1.85;;;1.75;;
17631;SDS011;8934;51.194;17.150;2022-09-23T11:09:02;2.70;;;2.03;;
17631;SDS011;8934;51.194;17.150;2022-09-23T11:12:05;1.92;;;1.77;;
17631;SDS011;8934;51.194;17.150;2022-09-23T11:15:12;1.83;;;1.45;;
17631;SDS011;8934;51.194;17.150;2022-09-23T11:18:14;2.00;;;1.80;;
17631;SDS011;8934;51.194;17.150;2022-09-23T11:21:34;2.03;;;1.85;;
17631;SDS011;8934;51.194;17.150;2022-09-23T11:24:57;6.70;;;1.98;;
17631;SDS011;8934;51.194;17.150;2022-09-23T11:27:58;2.70;;;2.00;;
17631;SDS011;8934;51.194;17.150;2022-09-23T11:31:04;2.53;;;1.70;;
17631;SDS011;8934;51.194;17.150;2022-09-23T11:34:15;2.03;;;1.70;;
17631;SDS011;8934;51.194;17.150;2022-09-23T11:37:19;3.20;;;1.80;;
17631;SDS011;8934;51.194;17.150;2022-09-23T11:40:14;2.00;;;1.90;;
17631;SDS011;8934;51.194;17.150;2022-09-23T11:43:11;2.50;;;2.10;;
17631;SDS011;8934;51.194;17.150;2022-09-23T11:46:05;2.35;;;2.15;;
17631;SDS011;8934;51.194;17.150;2022-09-23T11:49:02;2.30;;;1.90;;
17631;SDS011;8934;51.194;17.150;2022-09-23T11:51:58;2.45;;;2.25;;
17631;SDS011;8934;51.194;17.150;2022-09-23T11:54:50;4.18;;;2.13;;
17631;SDS011;8934;51.194;17.150;2022-09-23T11:57:44;3.08;;;2.55;;
17631;SDS011;8934;51.194;17.150;2022-09-23T12:00:35;2.83;;;1.75;;
17631;SDS011;8934;51.194;17.150;2022-09-23T12:03:31;2.55;;;1.90;;
17631;SDS011;8934;51.194;17.150;2022-09-23T12:06:32;3.25;;;1.52;;
17631;SDS011;8934;51.194;17.150;2022-09-23T12:09:26;1.92;;;1.73;;
17631;SDS011;8934;51.194;17.150;2022-09-23T12:12:40;2.17;;;1.80;;
17631;SDS011;8934;51.194;17.150;2022-09-23T12:15:41;1.70;;;1.60;;
17631;SDS011;8934;51.194;17.150;2022-09-23T12:18:46;1.92;;;1.70;;
17631;SDS011;8934;51.194;17.150;2022-09-23T12:21:52;2.25;;;1.20;;
17631;SDS011;8934;51.194;17.150;2022-09-23T12:24:56;2.13;;;1.40;;
17631;SDS011;8934;51.194;17.150;2022-09-23T12:27:54;1.30;;;1.20;;
17631;SDS011;8934;51.194;17.150;2022-09-23T12:30:47;1.15;;;1.00;;
17631;SDS011;8934;51.194;17.150;2022-09-23T12:33:37;1.67;;;1.10;;
17631;SDS011;8934;51.194;17.150;2022-09-23T12:36:27;1.67;;;0.98;;
17631;SDS011;8934;51.194;17.150;2022-09-23T12:39:22;1.00;;;0.93;;
17631;SDS011;8934;51.194;17.150;2022-09-23T12:42:16;1.33;;;1.02;;
17631;SDS011;8934;51.194;17.150;2022-09-23T12:45:27;1.63;;;1.15;;
17631;SDS011;8934;51.194;17.150;2022-09-23T12:48:26;2.38;;;1.10;;
17631;SDS011;8934;51.194;17.150;2022-09-23T12:51:31;1.13;;;1.02;;
17631;SDS011;8934;51.194;17.150;2022-09-23T12:54:21;1.33;;;0.90;;
17631;SDS011;8934;51.194;17.150;2022-09-23T12:57:11;1.10;;;1.00;;
17631;SDS011;8934;51.194;17.150;2022-09-23T13:00:12;1.35;;;1.10;;
17631;SDS011;8934;51.194;17.150;2022-09-23T13:03:09;0.88;;;0.88;;
17631;SDS011;8934;51.194;17.150;2022-09-23T13:06:31;1.35;;;1.00;;
17631;SDS011;8934;51.194;17.150;2022-09-23T13:09:25;1.50;;;0.95;;
17631;SDS011;8934;51.194;17.150;2022-09-23T13:12:17;1.20;;;0.70;;
17631;SDS011;8934;51.194;17.150;2022-09-23T13:15:14;0.98;;;0.90;;
17631;SDS011;8934;51.194;17.150;2022-09-23T13:21:59;0.60;;;0.60;;
17631;SDS011;8934;51.194;17.150;2022-09-23T13:24:52;0.55;;;0.55;;
17631;SDS011;8934;51.194;17.150;2022-09-23T13:27:40;0.70;;;0.70;;
17631;SDS011;8934;51.194;17.150;2022-09-23T13:30:33;0.82;;;0.80;;
17631;SDS011;8934;51.194;17.150;2022-09-23T13:33:24;1.58;;;0.55;;
17631;SDS011;8934;51.194;17.150;2022-09-23T13:36:17;0.70;;;0.70;;
17631;SDS011;8934;51.194;17.150;2022-09-23T13:39:13;0.93;;;0.80;;
17631;SDS011;8934;51.194;17.150;2022-09-23T13:42:02;2.45;;;1.00;;
17631;SDS011;8934;51.194;17.150;2022-09-23T13:44:51;1.55;;;0.65;;
17631;SDS011;8934;51.194;17.150;2022-09-23T13:47:42;1.88;;;0.75;;
17631;SDS011;8934;51.194;17.150;2022-09-23T13:50:32;1.35;;;0.60;;
17631;SDS011;8934;51.194;17.150;2022-09-23T13:53:24;1.33;;;0.70;;
17631;SDS011;8934;51.194;17.150;2022-09-23T13:56:15;2.67;;;0.93;;
17631;SDS011;8934;51.194;17.150;2022-09-23T13:59:14;0.80;;;0.70;;
17631;SDS011;8934;51.194;17.150;2022-09-23T14:02:10;0.70;;;0.70;;
17631;SDS011;8934;51.194;17.150;2022-09-23T14:05:08;0.75;;;0.70;;
17631;SDS011;8934;51.194;17.150;2022-09-23T14:07:57;1.65;;;0.70;;
17631;SDS011;8934;51.194;17.150;2022-09-23T14:10:46;1.00;;;0.90;;
17631;SDS011;8934;51.194;17.150;2022-09-23T14:13:39;1.58;;;0.90;;
17631;SDS011;8934;51.194;17.150;2022-09-23T14:16:29;1.67;;;0.90;;
17631;SDS011;8934;51.194;17.150;2022-09-23T14:19:17;0.95;;;0.95;;
17631;SDS011;8934;51.194;17.150;2022-09-23T14:22:19;1.02;;;0.80;;
17631;SDS011;8934;51.194;17.150;2022-09-23T14:25:11;0.75;;;0.75;;
17631;SDS011;8934;51.194;17.150;2022-09-23T14:28:00;0.82;;;0.80;;
17631;SDS011;8934;51.194;17.150;2022-09-23T14:30:50;0.65;;;0.60;;
17631;SDS011;8934;51.194;17.150;2022-09-23T14:33:42;0.70;;;0.70;;
17631;SDS011;8934;51.194;17.150;2022-09-23T14:36:29;1.00;;;0.90;;
17631;SDS011;8934;51.194;17.150;2022-09-23T14:39:39;1.10;;;0.90;;
17631;SDS011;8934;51.194;17.150;2022-09-23T14:42:27;1.60;;;1.10;;
17631;SDS011;8934;51.194;17.150;2022-09-23T14:45:18;2.83;;;0.88;;
17631;SDS011;8934;51.194;17.150;2022-09-23T14:48:12;1.10;;;1.00;;
17631;SDS011;8934;51.194;17.150;2022-09-23T14:51:05;1.73;;;0.90;;
17631;SDS011;8934;51.194;17.150;2022-09-23T14:57:25;0.75;;;0.75;;
17631;SDS011;8934;51.194;17.150;2022-09-23T15:00:16;0.70;;;0.70;;
17631;SDS011;8934;51.194;17.150;2022-09-23T15:03:13;0.88;;;0.85;;
17631;SDS011;8934;51.194;17.150;2022-09-23T15:06:03;3.22;;;1.00;;
17631;SDS011;8934;51.194;17.150;2022-09-23T15:08:54;0.95;;;0.77;;
17631;SDS011;8934;51.194;17.150;2022-09-23T15:11:42;1.55;;;0.70;;
17631;SDS011;8934;51.194;17.150;2022-09-23T15:14:32;0.73;;;0.68;;
17631;SDS011;8934;51.194;17.150;2022-09-23T15:17:29;1.15;;;0.60;;
17631;SDS011;8934;51.194;17.150;2022-09-23T15:20:22;2.03;;;1.00;;
17631;SDS011;8934;51.194;17.150;2022-09-23T15:26:19;0.80;;;0.60;;
17631;SDS011;8934;51.194;17.150;2022-09-23T15:29:08;1.77;;;0.90;;
17631;SDS011;8934;51.194;17.150;2022-09-23T15:31:56;1.85;;;1.00;;
17631;SDS011;8934;51.194;17.150;2022-09-23T15:34:47;1.23;;;0.70;;
17631;SDS011;8934;51.194;17.150;2022-09-23T15:37:39;2.78;;;0.82;;
17631;SDS011;8934;51.194;17.150;2022-09-23T15:40:28;1.52;;;1.15;;
17631;SDS011;8934;51.194;17.150;2022-09-23T15:43:18;0.95;;;0.80;;
17631;SDS011;8934;51.194;17.150;2022-09-23T15:46:11;0.90;;;0.80;;
17631;SDS011;8934;51.194;17.150;2022-09-23T15:49:03;1.63;;;1.20;;
17631;SDS011;8934;51.194;17.150;2022-09-23T15:51:52;4.30;;;1.73;;
17631;SDS011;8934;51.194;17.150;2022-09-23T15:54:45;2.28;;;2.08;;
17631;SDS011;8934;51.194;17.150;2022-09-23T15:57:32;3.70;;;2.10;;
17631;SDS011;8934;51.194;17.150;2022-09-23T16:00:21;2.50;;;2.30;;
17631;SDS011;8934;51.194;17.150;2022-09-23T16:03:09;2.90;;;2.70;;
17631;SDS011;8934;51.194;17.150;2022-09-23T16:06:03;4.50;;;4.20;;
17631;SDS011;8934;51.194;17.150;2022-09-23T16:08:51;8.30;;;7.80;;
17631;SDS011;8934;51.194;17.150;2022-09-23T16:11:43;7.93;;;7.43;;
17631;SDS011;8934;51.194;17.150;2022-09-23T16:14:32;9.65;;;8.82;;
17631;SDS011;8934;51.194;17.150;2022-09-23T16:17:19;10.25;;;9.35;;
17631;SDS011;8934;51.194;17.150;2022-09-23T16:20:08;10.00;;;9.10;;
17631;SDS011;8934;51.194;17.150;2022-09-23T16:22:58;9.35;;;8.45;;
17631;SDS011;8934;51.194;17.150;2022-09-23T16:25:47;9.10;;;8.30;;
17631;SDS011;8934;51.194;17.150;2022-09-23T16:28:37;7.60;;;6.90;;
17631;SDS011;8934;51.194;17.150;2022-09-23T16:31:25;7.07;;;6.43;;
17631;SDS011;8934;51.194;17.150;2022-09-23T16:34:14;6.60;;;5.82;;
17631;SDS011;8934;51.194;17.150;2022-09-23T16:37:02;6.93;;;5.15;;
17631;SDS011;8934;51.194;17.150;2022-09-23T16:39:50;5.68;;;5.18;;
17631;SDS011;8934;51.194;17.150;2022-09-23T16:42:39;5.38;;;4.97;;
17631;SDS011;8934;51.194;17.150;2022-09-23T16:45:28;6.00;;;5.43;;
17631;SDS011;8934;51.194;17.150;2022-09-23T16:48:16;7.82;;;6.13;;
17631;SDS011;8934;51.194;17.150;2022-09-23T16:51:04;6.60;;;6.07;;
17631;SDS011;8934;51.194;17.150;2022-09-23T16:53:56;7.40;;;6.47;;
17631;SDS011;8934;51.194;17.150;2022-09-23T16:56:45;6.13;;;5.53;;
17631;SDS011;8934;51.194;17.150;2022-09-23T16:59:33;7.82;;;6.30;;
17631;SDS011;8934;51.194;17.150;2022-09-23T17:02:36;7.53;;;6.93;;
17631;SDS011;8934;51.194;17.150;2022-09-23T17:05:41;6.05;;;5.55;;
17631;SDS011;8934;51.194;17.150;2022-09-23T17:08:31;6.32;;;5.72;;
17631;SDS011;8934;51.194;17.150;2022-09-23T17:11:19;6.03;;;5.43;;
17631;SDS011;8934;51.194;17.150;2022-09-23T17:14:08;5.13;;;4.72;;
17631;SDS011;8934;51.194;17.150;2022-09-23T17:16:56;4.93;;;4.53;;
17631;SDS011;8934;51.194;17.150;2022-09-23T17:19:46;4.60;;;4.20;;
17631;SDS011;8934;51.194;17.150;2022-09-23T17:22:33;4.30;;;3.90;;
17631;SDS011;8934;51.194;17.150;2022-09-23T17:25:21;4.03;;;3.72;;
17631;SDS011;8934;51.194;17.150;2022-09-23T17:28:09;4.05;;;3.58;;